sensor_id;sensor_type;location;lat;lon;timestamp;P1;durP1;ratioP1;P2;durP2;ratioP2
18893;SDS011;9579;49.488;8.226;2023-02-26T01:56:28;3.40;;;2.60;;
18893;SDS011;9579;49.488;8.226;2023-02-26T01:59:18;3.80;;;2.50;;
18893;SDS011;9579;49.488;8.226;2023-02-26T02:02:09;2.83;;;2.00;;
18893;SDS011;9579;49.488;8.226;2023-02-26T02:05:02;3.33;;;2.37;;
18893;SDS011;9579;49.488;8.226;2023-02-26T02:10:36;5.20;;;2.57;;
18893;SDS011;9579;49.488;8.226;2023-02-26T02:13:32;3.43;;;2.40;;
18893;SDS011;9579;49.488;8.226;2023-02-26T02:16:29;3.63;;;2.40;;
18893;SDS011;9579;49.488;8.226;2023-02-26T02:22:56;3.73;;;2.30;;
18893;SDS011;9579;49.488;8.226;2023-02-26T02:32:43;3.17;;;2.20;;
18893;SDS011;9579;49.488;8.226;2023-02-26T02:35:35;4.00;;;2.50;;
18893;SDS011;9579;49.488;8.226;2023-02-26T02:38:30;4.47;;;2.33;;
18893;SDS011;9579;49.488;8.226;2023-02-26T02:41:25;4.10;;;2.80;;
18893;SDS011;9579;49.488;8.226;2023-02-26T02:44:16;3.80;;;2.17;;
18893;SDS011;9579;49.488;8.226;2023-02-26T02:47:05;4.00;;;2.43;;
18893;SDS011;9579;49.488;8.226;2023-02-26T02:49:59;3.40;;;2.03;;
18893;SDS011;9579;49.488;8.226;2023-02-26T02:56:55;4.67;;;2.37;;
18893;SDS011;9579;49.488;8.226;2023-02-26T03:00:09;3.60;;;2.33;;
18893;SDS011;9579;49.488;8.226;2023-02-26T03:03:01;4.03;;;2.50;;
18893;SDS011;9579;49.488;8.226;2023-02-26T03:06:07;3.87;;;2.50;;
18893;SDS011;9579;49.488;8.226;2023-02-26T03:11:31;4.97;;;2.60;;
18893;SDS011;9579;49.488;8.226;2023-02-26T03:14:19;4.13;;;2.40;;
18893;SDS011;9579;49.488;8.226;2023-02-26T03:26:26;4.27;;;2.60;;
18893;SDS011;9579;49.488;8.226;2023-02-26T03:29:27;4.70;;;2.30;;
18893;SDS011;9579;49.488;8.226;2023-02-26T03:32:33;3.60;;;2.10;;
18893;SDS011;9579;49.488;8.226;2023-02-26T03:44:36;4.23;;;2.40;;
18893;SDS011;9579;49.488;8.226;2023-02-26T03:47:45;4.13;;;2.40;;
18893;SDS011;9579;49.488;8.226;2023-02-26T03:53:17;4.33;;;2.77;;
18893;SDS011;9579;49.488;8.226;2023-02-26T03:56:14;5.13;;;2.80;;
18893;SDS011;9579;49.488;8.226;2023-02-26T03:59:16;3.93;;;2.40;;
18893;SDS011;9579;49.488;8.226;2023-02-26T04:02:08;5.70;;;2.50;;
18893;SDS011;9579;49.488;8.226;2023-02-26T04:05:05;4.23;;;2.83;;
18893;SDS011;9579;49.488;8.226;2023-02-26T04:07:59;3.67;;;2.30;;
18893;SDS011;9579;49.488;8.226;2023-02-26T04:10:51;3.60;;;2.30;;
18893;SDS011;9579;49.488;8.226;2023-02-26T04:13:41;5.50;;;2.77;;
18893;SDS011;9579;49.488;8.226;2023-02-26T04:16:31;4.33;;;2.70;;
18893;SDS011;9579;49.488;8.226;2023-02-26T04:19:21;4.30;;;2.67;;
18893;SDS011;9579;49.488;8.226;2023-02-26T04:22:09;4.20;;;2.73;;
18893;SDS011;9579;49.488;8.226;2023-02-26T04:30:13;4.07;;;2.50;;
18893;SDS011;9579;49.488;8.226;2023-02-26T04:33:01;4.30;;;2.70;;
18893;SDS011;9579;49.488;8.226;2023-02-26T04:35:53;6.63;;;3.00;;
18893;SDS011;9579;49.488;8.226;2023-02-26T04:38:41;4.37;;;2.50;;
18893;SDS011;9579;49.488;8.226;2023-02-26T04:41:29;6.17;;;3.03;;
18893;SDS011;9579;49.488;8.226;2023-02-26T04:44:17;4.10;;;2.93;;
18893;SDS011;9579;49.488;8.226;2023-02-26T04:47:05;4.63;;;2.70;;
18893;SDS011;9579;49.488;8.226;2023-02-26T04:49:54;4.27;;;2.50;;
18893;SDS011;9579;49.488;8.226;2023-02-26T04:52:43;4.80;;;2.90;;
18893;SDS011;9579;49.488;8.226;2023-02-26T04:55:32;4.97;;;2.63;;
18893;SDS011;9579;49.488;8.226;2023-02-26T04:58:22;4.23;;;2.77;;
18893;SDS011;9579;49.488;8.226;2023-02-26T05:01:09;3.87;;;2.70;;
18893;SDS011;9579;49.488;8.226;2023-02-26T05:03:58;4.13;;;2.67;;
18893;SDS011;9579;49.488;8.226;2023-02-26T05:06:47;4.77;;;2.80;;
18893;SDS011;9579;49.488;8.226;2023-02-26T05:09:37;6.10;;;2.60;;
18893;SDS011;9579;49.488;8.226;2023-02-26T05:20:53;3.70;;;2.50;;
18893;SDS011;9579;49.488;8.226;2023-02-26T05:23:57;4.70;;;2.83;;
18893;SDS011;9579;49.488;8.226;2023-02-26T05:30:36;3.33;;;2.90;;
18893;SDS011;9579;49.488;8.226;2023-02-26T05:46:40;5.17;;;2.90;;
18893;SDS011;9579;49.488;8.226;2023-02-26T05:49:31;4.97;;;2.70;;
18893;SDS011;9579;49.488;8.226;2023-02-26T05:52:18;4.53;;;3.10;;
18893;SDS011;9579;49.488;8.226;2023-02-26T05:55:06;4.67;;;3.40;;
18893;SDS011;9579;49.488;8.226;2023-02-26T05:57:56;3.73;;;2.90;;
18893;SDS011;9579;49.488;8.226;2023-02-26T06:00:44;3.70;;;3.20;;
18893;SDS011;9579;49.488;8.226;2023-02-26T06:03:31;4.97;;;3.20;;
18893;SDS011;9579;49.488;8.226;2023-02-26T06:06:20;5.50;;;3.23;;
18893;SDS011;9579;49.488;8.226;2023-02-26T06:09:08;4.57;;;2.90;;
18893;SDS011;9579;49.488;8.226;2023-02-26T06:11:58;3.10;;;2.80;;
18893;SDS011;9579;49.488;8.226;2023-02-26T06:14:48;4.23;;;3.17;;
18893;SDS011;9579;49.488;8.226;2023-02-26T06:17:36;4.10;;;3.13;;
18893;SDS011;9579;49.488;8.226;2023-02-26T06:20:26;4.17;;;3.00;;
18893;SDS011;9579;49.488;8.226;2023-02-26T06:23:14;4.33;;;3.10;;
18893;SDS011;9579;49.488;8.226;2023-02-26T06:26:02;7.37;;;3.47;;
18893;SDS011;9579;49.488;8.226;2023-02-26T06:28:50;4.77;;;3.47;;
18893;SDS011;9579;49.488;8.226;2023-02-26T06:31:38;4.20;;;3.40;;
18893;SDS011;9579;49.488;8.226;2023-02-26T06:34:26;7.00;;;3.80;;
18893;SDS011;9579;49.488;8.226;2023-02-26T06:39:51;4.67;;;3.47;;
18893;SDS011;9579;49.488;8.226;2023-02-26T06:42:43;4.90;;;3.33;;
18893;SDS011;9579;49.488;8.226;2023-02-26T06:45:43;5.03;;;3.30;;
18893;SDS011;9579;49.488;8.226;2023-02-26T06:52:06;6.20;;;3.63;;
18893;SDS011;9579;49.488;8.226;2023-02-26T06:55:18;5.47;;;3.50;;
18893;SDS011;9579;49.488;8.226;2023-02-26T06:58:13;6.77;;;4.20;;
18893;SDS011;9579;49.488;8.226;2023-02-26T07:03:40;5.80;;;4.10;;
18893;SDS011;9579;49.488;8.226;2023-02-26T07:06:27;5.63;;;3.50;;
18893;SDS011;9579;49.488;8.226;2023-02-26T07:09:15;5.03;;;3.10;;
18893;SDS011;9579;49.488;8.226;2023-02-26T07:12:06;4.17;;;3.37;;
18893;SDS011;9579;49.488;8.226;2023-02-26T07:14:53;4.30;;;3.07;;
18893;SDS011;9579;49.488;8.226;2023-02-26T07:17:41;4.57;;;3.20;;
18893;SDS011;9579;49.488;8.226;2023-02-26T07:20:29;4.53;;;3.10;;
18893;SDS011;9579;49.488;8.226;2023-02-26T07:25:52;4.13;;;3.20;;
18893;SDS011;9579;49.488;8.226;2023-02-26T07:28:43;6.13;;;3.50;;
18893;SDS011;9579;49.488;8.226;2023-02-26T07:31:30;5.10;;;3.60;;
18893;SDS011;9579;49.488;8.226;2023-02-26T07:34:18;4.53;;;2.97;;
18893;SDS011;9579;49.488;8.226;2023-02-26T07:37:06;3.90;;;3.00;;
18893;SDS011;9579;49.488;8.226;2023-02-26T07:39:54;4.20;;;3.03;;
18893;SDS011;9579;49.488;8.226;2023-02-26T07:42:41;4.77;;;3.50;;
18893;SDS011;9579;49.488;8.226;2023-02-26T07:45:33;6.40;;;4.03;;
18893;SDS011;9579;49.488;8.226;2023-02-26T07:48:21;8.90;;;8.10;;
18893;SDS011;9579;49.488;8.226;2023-02-26T07:51:08;17.70;;;16.10;;
18893;SDS011;9579;49.488;8.226;2023-02-26T07:53:55;6.83;;;6.13;;
18893;SDS011;9579;49.488;8.226;2023-02-26T07:56:42;11.60;;;8.43;;
18893;SDS011;9579;49.488;8.226;2023-02-26T07:59:29;6.33;;;5.30;;
18893;SDS011;9579;49.488;8.226;2023-02-26T08:02:17;5.83;;;4.17;;
18893;SDS011;9579;49.488;8.226;2023-02-26T08:05:04;7.50;;;4.87;;
18893;SDS011;9579;49.488;8.226;2023-02-26T08:07:52;3.50;;;3.20;;
18893;SDS011;9579;49.488;8.226;2023-02-26T08:10:39;4.00;;;2.80;;
18893;SDS011;9579;49.488;8.226;2023-02-26T08:13:26;5.73;;;3.50;;
18893;SDS011;9579;49.488;8.226;2023-02-26T08:16:13;9.97;;;8.50;;
18893;SDS011;9579;49.488;8.226;2023-02-26T08:19:02;6.33;;;5.60;;
18893;SDS011;9579;49.488;8.226;2023-02-26T08:21:49;6.37;;;3.87;;
18893;SDS011;9579;49.488;8.226;2023-02-26T08:24:36;7.57;;;5.70;;
18893;SDS011;9579;49.488;8.226;2023-02-26T08:27:23;4.63;;;3.40;;
18893;SDS011;9579;49.488;8.226;2023-02-26T08:30:11;8.83;;;5.77;;
18893;SDS011;9579;49.488;8.226;2023-02-26T08:32:59;5.47;;;3.63;;
18893;SDS011;9579;49.488;8.226;2023-02-26T08:35:48;8.50;;;6.47;;
18893;SDS011;9579;49.488;8.226;2023-02-26T08:38:35;7.07;;;4.33;;
18893;SDS011;9579;49.488;8.226;2023-02-26T08:41:22;7.97;;;6.20;;
18893;SDS011;9579;49.488;8.226;2023-02-26T08:44:11;4.27;;;3.27;;
18893;SDS011;9579;49.488;8.226;2023-02-26T08:46:58;5.30;;;4.60;;
18893;SDS011;9579;49.488;8.226;2023-02-26T08:49:46;3.43;;;3.00;;
18893;SDS011;9579;49.488;8.226;2023-02-26T08:52:34;4.43;;;3.40;;
18893;SDS011;9579;49.488;8.226;2023-02-26T08:55:23;4.20;;;3.00;;
18893;SDS011;9579;49.488;8.226;2023-02-26T08:58:10;4.07;;;3.50;;
18893;SDS011;9579;49.488;8.226;2023-02-26T09:00:57;5.00;;;2.70;;
18893;SDS011;9579;49.488;8.226;2023-02-26T09:03:44;3.77;;;3.10;;
18893;SDS011;9579;49.488;8.226;2023-02-26T09:06:31;3.73;;;2.50;;
18893;SDS011;9579;49.488;8.226;2023-02-26T09:09:20;3.30;;;2.43;;
18893;SDS011;9579;49.488;8.226;2023-02-26T09:12:07;5.63;;;2.80;;
18893;SDS011;9579;49.488;8.226;2023-02-26T09:14:54;3.00;;;2.13;;
18893;SDS011;9579;49.488;8.226;2023-02-26T09:17:43;2.87;;;2.33;;
18893;SDS011;9579;49.488;8.226;2023-02-26T09:20:30;3.60;;;2.27;;
18893;SDS011;9579;49.488;8.226;2023-02-26T09:23:17;4.43;;;2.60;;
18893;SDS011;9579;49.488;8.226;2023-02-26T09:26:06;3.20;;;2.13;;
18893;SDS011;9579;49.488;8.226;2023-02-26T09:28:54;3.10;;;2.63;;
18893;SDS011;9579;49.488;8.226;2023-02-26T09:31:41;3.73;;;2.50;;
18893;SDS011;9579;49.488;8.226;2023-02-26T09:34:28;3.03;;;2.40;;
18893;SDS011;9579;49.488;8.226;2023-02-26T09:37:15;3.53;;;2.13;;
18893;SDS011;9579;49.488;8.226;2023-02-26T09:40:03;4.37;;;2.40;;
18893;SDS011;9579;49.488;8.226;2023-02-26T09:42:59;2.50;;;2.20;;
18893;SDS011;9579;49.488;8.226;2023-02-26T09:45:53;2.87;;;2.07;;
18893;SDS011;9579;49.488;8.226;2023-02-26T09:48:42;3.13;;;2.30;;
18893;SDS011;9579;49.488;8.226;2023-02-26T09:51:31;4.07;;;2.50;;
18893;SDS011;9579;49.488;8.226;2023-02-26T09:54:21;2.67;;;2.00;;
18893;SDS011;9579;49.488;8.226;2023-02-26T09:57:12;3.43;;;2.10;;
18893;SDS011;9579;49.488;8.226;2023-02-26T10:00:15;3.23;;;2.10;;
18893;SDS011;9579;49.488;8.226;2023-02-26T10:03:15;4.43;;;2.50;;
18893;SDS011;9579;49.488;8.226;2023-02-26T10:06:12;2.43;;;1.93;;
18893;SDS011;9579;49.488;8.226;2023-02-26T10:09:08;2.30;;;1.93;;
18893;SDS011;9579;49.488;8.226;2023-02-26T10:12:09;3.37;;;1.80;;
18893;SDS011;9579;49.488;8.226;2023-02-26T10:14:59;2.33;;;2.00;;
18893;SDS011;9579;49.488;8.226;2023-02-26T10:17:56;3.20;;;2.10;;
18893;SDS011;9579;49.488;8.226;2023-02-26T10:20:49;3.50;;;2.40;;
18893;SDS011;9579;49.488;8.226;2023-02-26T10:23:41;2.70;;;1.90;;
18893;SDS011;9579;49.488;8.226;2023-02-26T10:26:33;2.60;;;2.17;;
18893;SDS011;9579;49.488;8.226;2023-02-26T10:29:26;2.70;;;1.90;;
18893;SDS011;9579;49.488;8.226;2023-02-26T10:32:22;2.23;;;2.03;;
18893;SDS011;9579;49.488;8.226;2023-02-26T10:35:15;4.03;;;2.40;;
18893;SDS011;9579;49.488;8.226;2023-02-26T10:38:04;3.13;;;2.00;;
18893;SDS011;9579;49.488;8.226;2023-02-26T10:40:57;2.40;;;2.00;;
18893;SDS011;9579;49.488;8.226;2023-02-26T10:43:48;5.47;;;2.40;;
18893;SDS011;9579;49.488;8.226;2023-02-26T10:46:39;3.53;;;2.53;;
18893;SDS011;9579;49.488;8.226;2023-02-26T10:49:49;5.60;;;5.00;;
18893;SDS011;9579;49.488;8.226;2023-02-26T10:52:41;4.00;;;3.40;;
18893;SDS011;9579;49.488;8.226;2023-02-26T10:55:34;3.30;;;2.13;;
18893;SDS011;9579;49.488;8.226;2023-02-26T10:58:27;2.77;;;2.03;;
18893;SDS011;9579;49.488;8.226;2023-02-26T11:01:15;2.70;;;1.90;;
18893;SDS011;9579;49.488;8.226;2023-02-26T11:04:05;2.37;;;1.90;;
18893;SDS011;9579;49.488;8.226;2023-02-26T11:06:55;1.87;;;1.70;;
18893;SDS011;9579;49.488;8.226;2023-02-26T11:09:46;2.10;;;1.90;;
18893;SDS011;9579;49.488;8.226;2023-02-26T11:12:33;2.03;;;1.50;;
18893;SDS011;9579;49.488;8.226;2023-02-26T11:15:22;2.03;;;1.50;;
18893;SDS011;9579;49.488;8.226;2023-02-26T11:18:12;2.00;;;1.70;;
18893;SDS011;9579;49.488;8.226;2023-02-26T11:21:03;2.57;;;1.80;;
18893;SDS011;9579;49.488;8.226;2023-02-26T11:23:53;2.13;;;1.70;;
18893;SDS011;9579;49.488;8.226;2023-02-26T11:26:46;2.50;;;1.53;;
18893;SDS011;9579;49.488;8.226;2023-02-26T11:29:36;4.10;;;2.50;;
18893;SDS011;9579;49.488;8.226;2023-02-26T11:32:28;3.80;;;2.40;;
18893;SDS011;9579;49.488;8.226;2023-02-26T11:35:17;2.80;;;2.03;;
18893;SDS011;9579;49.488;8.226;2023-02-26T11:38:09;3.40;;;2.03;;
18893;SDS011;9579;49.488;8.226;2023-02-26T11:41:03;2.57;;;1.60;;
18893;SDS011;9579;49.488;8.226;2023-02-26T11:43:57;1.83;;;1.57;;
18893;SDS011;9579;49.488;8.226;2023-02-26T11:46:49;2.20;;;1.50;;
18893;SDS011;9579;49.488;8.226;2023-02-26T11:49:39;2.50;;;1.70;;
18893;SDS011;9579;49.488;8.226;2023-02-26T11:52:31;2.80;;;2.10;;
18893;SDS011;9579;49.488;8.226;2023-02-26T11:55:21;2.33;;;2.00;;
18893;SDS011;9579;49.488;8.226;2023-02-26T11:58:16;1.93;;;1.63;;
18893;SDS011;9579;49.488;8.226;2023-02-26T12:01:09;1.70;;;1.40;;
18893;SDS011;9579;49.488;8.226;2023-02-26T12:03:58;1.57;;;1.47;;
18893;SDS011;9579;49.488;8.226;2023-02-26T12:06:48;1.93;;;1.57;;
18893;SDS011;9579;49.488;8.226;2023-02-26T12:09:36;1.50;;;1.33;;
18893;SDS011;9579;49.488;8.226;2023-02-26T12:12:28;1.63;;;1.53;;
18893;SDS011;9579;49.488;8.226;2023-02-26T12:15:26;1.67;;;1.50;;
18893;SDS011;9579;49.488;8.226;2023-02-26T12:18:25;1.80;;;1.70;;
18893;SDS011;9579;49.488;8.226;2023-02-26T12:21:24;1.37;;;1.27;;
18893;SDS011;9579;49.488;8.226;2023-02-26T12:24:27;2.30;;;2.10;;
18893;SDS011;9579;49.488;8.226;2023-02-26T12:27:25;2.53;;;2.33;;
18893;SDS011;9579;49.488;8.226;2023-02-26T12:30:31;3.00;;;2.63;;
18893;SDS011;9579;49.488;8.226;2023-02-26T12:33:40;3.63;;;2.40;;
18893;SDS011;9579;49.488;8.226;2023-02-26T12:36:38;2.40;;;2.17;;
18893;SDS011;9579;49.488;8.226;2023-02-26T12:39:40;2.20;;;2.00;;
18893;SDS011;9579;49.488;8.226;2023-02-26T12:42:39;3.30;;;2.00;;
18893;SDS011;9579;49.488;8.226;2023-02-26T12:45:38;3.63;;;1.93;;
18893;SDS011;9579;49.488;8.226;2023-02-26T12:48:53;2.40;;;1.80;;
18893;SDS011;9579;49.488;8.226;2023-02-26T12:51:56;2.13;;;1.60;;
18893;SDS011;9579;49.488;8.226;2023-02-26T12:55:00;3.37;;;2.60;;
18893;SDS011;9579;49.488;8.226;2023-02-26T12:58:01;4.30;;;2.67;;
18893;SDS011;9579;49.488;8.226;2023-02-26T13:01:12;2.97;;;2.50;;
18893;SDS011;9579;49.488;8.226;2023-02-26T13:04:18;1.67;;;1.50;;
18893;SDS011;9579;49.488;8.226;2023-02-26T13:07:38;2.93;;;1.80;;
18893;SDS011;9579;49.488;8.226;2023-02-26T13:10:46;1.87;;;1.50;;
18893;SDS011;9579;49.488;8.226;2023-02-26T13:13:47;2.00;;;1.77;;
18893;SDS011;9579;49.488;8.226;2023-02-26T13:16:43;1.40;;;1.30;;
18893;SDS011;9579;49.488;8.226;2023-02-26T13:19:40;2.67;;;1.50;;
18893;SDS011;9579;49.488;8.226;2023-02-26T13:22:32;2.10;;;1.33;;
18893;SDS011;9579;49.488;8.226;2023-02-26T13:25:24;1.87;;;1.30;;
18893;SDS011;9579;49.488;8.226;2023-02-26T13:28:23;2.00;;;1.80;;
18893;SDS011;9579;49.488;8.226;2023-02-26T13:31:25;3.30;;;1.63;;
18893;SDS011;9579;49.488;8.226;2023-02-26T13:34:15;1.70;;;1.60;;
18893;SDS011;9579;49.488;8.226;2023-02-26T13:37:14;1.97;;;1.50;;
18893;SDS011;9579;49.488;8.226;2023-02-26T13:40:17;1.43;;;1.33;;
18893;SDS011;9579;49.488;8.226;2023-02-26T13:43:29;1.53;;;1.33;;
18893;SDS011;9579;49.488;8.226;2023-02-26T13:46:27;1.50;;;1.30;;
18893;SDS011;9579;49.488;8.226;2023-02-26T13:49:25;1.57;;;1.40;;
18893;SDS011;9579;49.488;8.226;2023-02-26T13:52:23;1.97;;;1.50;;
18893;SDS011;9579;49.488;8.226;2023-02-26T13:55:33;1.40;;;1.30;;
18893;SDS011;9579;49.488;8.226;2023-02-26T20:03:17;2.30;;;1.90;;
18893;SDS011;9579;49.488;8.226;2023-02-26T20:06:04;2.03;;;1.87;;
18893;SDS011;9579;49.488;8.226;2023-02-26T20:08:52;1.93;;;1.73;;
18893;SDS011;9579;49.488;8.226;2023-02-26T20:11:39;2.40;;;2.20;;
18893;SDS011;9579;49.488;8.226;2023-02-26T20:14:29;2.33;;;2.10;;
18893;SDS011;9579;49.488;8.226;2023-02-26T20:17:16;2.53;;;2.07;;
18893;SDS011;9579;49.488;8.226;2023-02-26T20:20:05;2.33;;;2.03;;
18893;SDS011;9579;49.488;8.226;2023-02-26T20:22:53;2.10;;;1.90;;
18893;SDS011;9579;49.488;8.226;2023-02-26T20:25:41;2.50;;;2.10;;
18893;SDS011;9579;49.488;8.226;2023-02-26T20:28:29;2.30;;;2.10;;
18893;SDS011;9579;49.488;8.226;2023-02-26T20:31:16;3.53;;;2.10;;
18893;SDS011;9579;49.488;8.226;2023-02-26T20:34:05;3.33;;;2.73;;
18893;SDS011;9579;49.488;8.226;2023-02-26T20:36:54;3.67;;;2.83;;
18893;SDS011;9579;49.488;8.226;2023-02-26T20:39:44;4.13;;;3.50;;
18893;SDS011;9579;49.488;8.226;2023-02-26T20:42:32;5.60;;;4.20;;
18893;SDS011;9579;49.488;8.226;2023-02-26T20:45:22;3.63;;;2.80;;
18893;SDS011;9579;49.488;8.226;2023-02-26T20:48:09;2.30;;;2.10;;
18893;SDS011;9579;49.488;8.226;2023-02-26T20:50:59;3.30;;;2.07;;
18893;SDS011;9579;49.488;8.226;2023-02-26T20:53:51;3.40;;;2.30;;
18893;SDS011;9579;49.488;8.226;2023-02-26T20:56:39;2.73;;;2.30;;
18893;SDS011;9579;49.488;8.226;2023-02-26T20:59:26;3.03;;;2.33;;
18893;SDS011;9579;49.488;8.226;2023-02-26T21:02:13;3.53;;;2.80;;
18893;SDS011;9579;49.488;8.226;2023-02-26T21:05:05;3.07;;;2.70;;
18893;SDS011;9579;49.488;8.226;2023-02-26T21:07:53;2.70;;;2.50;;
18893;SDS011;9579;49.488;8.226;2023-02-26T21:10:42;3.97;;;3.00;;
18893;SDS011;9579;49.488;8.226;2023-02-26T21:13:29;4.13;;;3.10;;
18893;SDS011;9579;49.488;8.226;2023-02-26T21:16:16;3.83;;;2.70;;
18893;SDS011;9579;49.488;8.226;2023-02-26T21:19:03;4.63;;;2.60;;
18893;SDS011;9579;49.488;8.226;2023-02-26T21:21:51;3.47;;;2.60;;
18893;SDS011;9579;49.488;8.226;2023-02-26T21:24:38;3.57;;;2.93;;
18893;SDS011;9579;49.488;8.226;2023-02-26T21:27:26;3.87;;;3.30;;
18893;SDS011;9579;49.488;8.226;2023-02-26T21:30:14;4.53;;;3.70;;
18893;SDS011;9579;49.488;8.226;2023-02-26T21:33:02;5.37;;;4.00;;
18893;SDS011;9579;49.488;8.226;2023-02-26T21:35:49;4.13;;;3.63;;
18893;SDS011;9579;49.488;8.226;2023-02-26T21:38:37;4.40;;;3.60;;
18893;SDS011;9579;49.488;8.226;2023-02-26T21:41:24;4.30;;;3.47;;
18893;SDS011;9579;49.488;8.226;2023-02-26T21:44:12;4.00;;;3.60;;
18893;SDS011;9579;49.488;8.226;2023-02-26T21:46:59;3.50;;;3.20;;
18893;SDS011;9579;49.488;8.226;2023-02-26T21:49:47;4.90;;;4.10;;
18893;SDS011;9579;49.488;8.226;2023-02-26T21:52:34;3.67;;;3.23;;
18893;SDS011;9579;49.488;8.226;2023-02-26T21:55:21;5.93;;;3.93;;
18893;SDS011;9579;49.488;8.226;2023-02-26T21:58:08;5.50;;;4.60;;
18893;SDS011;9579;49.488;8.226;2023-02-26T22:00:58;8.63;;;5.27;;
18893;SDS011;9579;49.488;8.226;2023-02-26T22:03:45;8.17;;;6.00;;
18893;SDS011;9579;49.488;8.226;2023-02-26T22:06:33;8.50;;;6.00;;
18893;SDS011;9579;49.488;8.226;2023-02-26T22:09:20;6.60;;;5.20;;
18893;SDS011;9579;49.488;8.226;2023-02-26T22:12:08;6.57;;;5.47;;
18893;SDS011;9579;49.488;8.226;2023-02-26T22:14:55;7.23;;;5.60;;
18893;SDS011;9579;49.488;8.226;2023-02-26T22:17:44;6.53;;;5.13;;
18893;SDS011;9579;49.488;8.226;2023-02-26T22:20:31;5.20;;;4.57;;
18893;SDS011;9579;49.488;8.226;2023-02-26T22:23:18;5.77;;;4.93;;
18893;SDS011;9579;49.488;8.226;2023-02-26T22:26:06;5.63;;;4.67;;
18893;SDS011;9579;49.488;8.226;2023-02-26T22:28:53;6.30;;;4.00;;
18893;SDS011;9579;49.488;8.226;2023-02-26T22:31:41;4.73;;;3.73;;
18893;SDS011;9579;49.488;8.226;2023-02-26T22:34:30;4.97;;;3.67;;
18893;SDS011;9579;49.488;8.226;2023-02-26T22:37:19;4.23;;;3.70;;
18893;SDS011;9579;49.488;8.226;2023-02-26T22:40:16;5.50;;;3.70;;
18893;SDS011;9579;49.488;8.226;2023-02-26T22:43:03;4.70;;;4.30;;
18893;SDS011;9579;49.488;8.226;2023-02-26T22:45:51;5.60;;;5.00;;
18893;SDS011;9579;49.488;8.226;2023-02-26T22:48:38;6.87;;;5.27;;
18893;SDS011;9579;49.488;8.226;2023-02-26T22:51:26;6.40;;;5.70;;
18893;SDS011;9579;49.488;8.226;2023-02-26T22:54:14;8.00;;;6.47;;
18893;SDS011;9579;49.488;8.226;2023-02-26T22:57:02;6.63;;;5.77;;
18893;SDS011;9579;49.488;8.226;2023-02-26T22:59:49;6.23;;;5.20;;
18893;SDS011;9579;49.488;8.226;2023-02-26T23:02:36;7.57;;;6.53;;
18893;SDS011;9579;49.488;8.226;2023-02-26T23:05:24;9.47;;;6.40;;
18893;SDS011;9579;49.488;8.226;2023-02-26T23:08:12;7.33;;;5.97;;
18893;SDS011;9579;49.488;8.226;2023-02-26T23:11:00;8.53;;;6.50;;
18893;SDS011;9579;49.488;8.226;2023-02-26T23:13:48;9.30;;;7.17;;
18893;SDS011;9579;49.488;8.226;2023-02-26T23:16:35;7.40;;;5.30;;
18893;SDS011;9579;49.488;8.226;2023-02-26T23:19:22;6.03;;;4.33;;
18893;SDS011;9579;49.488;8.226;2023-02-26T23:22:09;5.33;;;3.87;;
18893;SDS011;9579;49.488;8.226;2023-02-26T23:24:58;7.93;;;4.90;;
18893;SDS011;9579;49.488;8.226;2023-02-26T23:27:45;14.77;;;9.60;;
18893;SDS011;9579;49.488;8.226;2023-02-26T23:30:32;31.70;;;19.00;;
18893;SDS011;9579;49.488;8.226;2023-02-26T23:33:19;18.70;;;12.40;;
18893;SDS011;9579;49.488;8.226;2023-02-26T23:36:07;10.47;;;7.30;;
18893;SDS011;9579;49.488;8.226;2023-02-26T23:38:54;9.40;;;6.20;;
18893;SDS011;9579;49.488;8.226;2023-02-26T23:41:42;7.03;;;5.20;;
18893;SDS011;9579;49.488;8.226;2023-02-26T23:44:29;4.87;;;3.97;;
18893;SDS011;9579;49.488;8.226;2023-02-26T23:47:17;4.57;;;3.80;;
18893;SDS011;9579;49.488;8.226;2023-02-26T23:50:04;4.53;;;3.83;;
18893;SDS011;9579;49.488;8.226;2023-02-26T23:52:52;6.23;;;3.90;;
18893;SDS011;9579;49.488;8.226;2023-02-26T23:55:39;4.43;;;3.50;;
18893;SDS011;9579;49.488;8.226;2023-02-26T23:58:28;5.57;;;3.90;;
